sensor_id;sensor_type;location;lat;lon;timestamp;P1;durP1;ratioP1;P2;durP2;ratioP2
75209;SDS011;63796;53.136;14.882;2022-11-12T00:01:03;10.25;;;4.15;;
75209;SDS011;63796;53.136;14.882;2022-11-12T00:03:30;10.13;;;4.15;;
75209;SDS011;63796;53.136;14.882;2022-11-12T00:05:57;10.53;;;4.47;;
75209;SDS011;63796;53.136;14.882;2022-11-12T00:08:24;12.80;;;3.83;;
75209;SDS011;63796;53.136;14.882;2022-11-12T00:10:51;6.47;;;3.70;;
75209;SDS011;63796;53.136;14.882;2022-11-12T00:13:18;8.33;;;3.42;;
75209;SDS011;63796;53.136;14.882;2022-11-12T00:15:45;8.33;;;3.85;;
75209;SDS011;63796;53.136;14.882;2022-11-12T00:18:13;8.68;;;3.80;;
75209;SDS011;63796;53.136;14.882;2022-11-12T00:20:40;7.97;;;3.97;;
75209;SDS011;63796;53.136;14.882;2022-11-12T00:23:07;8.43;;;3.83;;
75209;SDS011;63796;53.136;14.882;2022-11-12T00:25:34;5.97;;;3.83;;
75209;SDS011;63796;53.136;14.882;2022-11-12T00:28:02;8.00;;;3.83;;
75209;SDS011;63796;53.136;14.882;2022-11-12T00:30:31;7.87;;;3.58;;
75209;SDS011;63796;53.136;14.882;2022-11-12T00:33:02;9.40;;;3.90;;
75209;SDS011;63796;53.136;14.882;2022-11-12T00:35:30;7.00;;;3.65;;
75209;SDS011;63796;53.136;14.882;2022-11-12T00:37:58;7.15;;;3.90;;
75209;SDS011;63796;53.136;14.882;2022-11-12T00:40:26;8.20;;;4.03;;
75209;SDS011;63796;53.136;14.882;2022-11-12T00:42:54;9.33;;;3.52;;
75209;SDS011;63796;53.136;14.882;2022-11-12T00:45:21;8.57;;;3.73;;
75209;SDS011;63796;53.136;14.882;2022-11-12T00:47:48;10.00;;;3.92;;
75209;SDS011;63796;53.136;14.882;2022-11-12T00:50:23;8.95;;;3.08;;
75209;SDS011;63796;53.136;14.882;2022-11-12T00:52:51;8.88;;;3.92;;
75209;SDS011;63796;53.136;14.882;2022-11-12T00:55:19;6.80;;;3.55;;
75209;SDS011;63796;53.136;14.882;2022-11-12T00:57:46;5.20;;;3.47;;
75209;SDS011;63796;53.136;14.882;2022-11-12T01:00:14;9.03;;;4.15;;
75209;SDS011;63796;53.136;14.882;2022-11-12T01:02:43;10.00;;;4.05;;
75209;SDS011;63796;53.136;14.882;2022-11-12T01:05:10;6.17;;;3.58;;
75209;SDS011;63796;53.136;14.882;2022-11-12T01:07:37;9.95;;;3.75;;
75209;SDS011;63796;53.136;14.882;2022-11-12T01:10:04;8.90;;;4.43;;
75209;SDS011;63796;53.136;14.882;2022-11-12T01:12:32;6.42;;;3.58;;
75209;SDS011;63796;53.136;14.882;2022-11-12T01:14:59;8.60;;;4.25;;
75209;SDS011;63796;53.136;14.882;2022-11-12T01:17:27;7.70;;;3.83;;
75209;SDS011;63796;53.136;14.882;2022-11-12T01:19:54;10.00;;;4.50;;
75209;SDS011;63796;53.136;14.882;2022-11-12T01:22:20;6.97;;;3.60;;
75209;SDS011;63796;53.136;14.882;2022-11-12T01:24:47;8.60;;;3.55;;
75209;SDS011;63796;53.136;14.882;2022-11-12T01:27:14;9.58;;;3.72;;
75209;SDS011;63796;53.136;14.882;2022-11-12T01:29:41;7.10;;;3.80;;
75209;SDS011;63796;53.136;14.882;2022-11-12T01:32:08;9.00;;;3.70;;
75209;SDS011;63796;53.136;14.882;2022-11-12T01:34:35;7.77;;;2.83;;
75209;SDS011;63796;53.136;14.882;2022-11-12T01:37:02;11.25;;;2.95;;
75209;SDS011;63796;53.136;14.882;2022-11-12T01:39:29;5.87;;;3.20;;
75209;SDS011;63796;53.136;14.882;2022-11-12T01:41:55;11.35;;;3.60;;
75209;SDS011;63796;53.136;14.882;2022-11-12T01:44:27;7.87;;;3.40;;
75209;SDS011;63796;53.136;14.882;2022-11-12T01:52:42;8.18;;;4.22;;
75209;SDS011;63796;53.136;14.882;2022-11-12T01:55:21;7.87;;;3.50;;
75209;SDS011;63796;53.136;14.882;2022-11-12T01:57:58;7.25;;;3.62;;
75209;SDS011;63796;53.136;14.882;2022-11-12T02:00:31;8.47;;;4.00;;
75209;SDS011;63796;53.136;14.882;2022-11-12T02:02:58;9.30;;;3.77;;
75209;SDS011;63796;53.136;14.882;2022-11-12T02:05:29;7.90;;;3.85;;
75209;SDS011;63796;53.136;14.882;2022-11-12T02:07:58;6.10;;;3.37;;
75209;SDS011;63796;53.136;14.882;2022-11-12T02:13:08;8.37;;;4.03;;
75209;SDS011;63796;53.136;14.882;2022-11-12T02:15:53;10.70;;;4.12;;
75209;SDS011;63796;53.136;14.882;2022-11-12T02:18:21;7.75;;;3.60;;
75209;SDS011;63796;53.136;14.882;2022-11-12T02:20:51;7.72;;;3.67;;
75209;SDS011;63796;53.136;14.882;2022-11-12T02:23:22;6.62;;;4.00;;
75209;SDS011;63796;53.136;14.882;2022-11-12T02:25:49;16.43;;;7.03;;
75209;SDS011;63796;53.136;14.882;2022-11-12T02:28:16;19.42;;;7.70;;
75209;SDS011;63796;53.136;14.882;2022-11-12T02:30:45;8.98;;;5.12;;
75209;SDS011;63796;53.136;14.882;2022-11-12T02:33:14;10.75;;;3.83;;
75209;SDS011;63796;53.136;14.882;2022-11-12T02:35:41;8.83;;;4.60;;
75209;SDS011;63796;53.136;14.882;2022-11-12T02:38:08;10.40;;;5.23;;
75209;SDS011;63796;53.136;14.882;2022-11-12T02:40:35;7.83;;;4.92;;
75209;SDS011;63796;53.136;14.882;2022-11-12T02:43:02;9.83;;;4.87;;
75209;SDS011;63796;53.136;14.882;2022-11-12T02:45:29;7.35;;;4.08;;
75209;SDS011;63796;53.136;14.882;2022-11-12T02:47:57;9.70;;;4.30;;
75209;SDS011;63796;53.136;14.882;2022-11-12T02:50:24;10.77;;;4.83;;
75209;SDS011;63796;53.136;14.882;2022-11-12T02:52:51;6.12;;;3.60;;
75209;SDS011;63796;53.136;14.882;2022-11-12T02:55:18;9.05;;;4.25;;
75209;SDS011;63796;53.136;14.882;2022-11-12T02:57:45;9.13;;;4.17;;
75209;SDS011;63796;53.136;14.882;2022-11-12T03:00:12;7.97;;;4.12;;
75209;SDS011;63796;53.136;14.882;2022-11-12T03:02:39;9.87;;;3.70;;
75209;SDS011;63796;53.136;14.882;2022-11-12T03:05:11;7.15;;;3.65;;
75209;SDS011;63796;53.136;14.882;2022-11-12T03:07:38;6.28;;;3.72;;
75209;SDS011;63796;53.136;14.882;2022-11-12T03:10:05;10.13;;;4.47;;
75209;SDS011;63796;53.136;14.882;2022-11-12T03:12:32;9.35;;;4.40;;
75209;SDS011;63796;53.136;14.882;2022-11-12T03:14:59;8.13;;;4.10;;
75209;SDS011;63796;53.136;14.882;2022-11-12T03:17:26;9.13;;;4.67;;
75209;SDS011;63796;53.136;14.882;2022-11-12T03:19:53;7.30;;;4.12;;
75209;SDS011;63796;53.136;14.882;2022-11-12T03:22:20;8.85;;;5.08;;
75209;SDS011;63796;53.136;14.882;2022-11-12T03:24:46;10.03;;;4.30;;
75209;SDS011;63796;53.136;14.882;2022-11-12T03:27:14;10.20;;;4.43;;
75209;SDS011;63796;53.136;14.882;2022-11-12T03:29:41;10.70;;;4.28;;
75209;SDS011;63796;53.136;14.882;2022-11-12T03:32:08;10.80;;;4.33;;
75209;SDS011;63796;53.136;14.882;2022-11-12T03:34:34;9.25;;;4.20;;
75209;SDS011;63796;53.136;14.882;2022-11-12T03:37:01;13.78;;;5.60;;
75209;SDS011;63796;53.136;14.882;2022-11-12T03:39:28;15.33;;;5.83;;
75209;SDS011;63796;53.136;14.882;2022-11-12T03:41:55;17.50;;;6.70;;
75209;SDS011;63796;53.136;14.882;2022-11-12T03:44:22;18.92;;;7.10;;
75209;SDS011;63796;53.136;14.882;2022-11-12T03:46:49;17.50;;;6.58;;
75209;SDS011;63796;53.136;14.882;2022-11-12T03:49:17;17.20;;;6.28;;
75209;SDS011;63796;53.136;14.882;2022-11-12T03:51:44;14.53;;;6.63;;
75209;SDS011;63796;53.136;14.882;2022-11-12T03:54:11;11.75;;;4.85;;
75209;SDS011;63796;53.136;14.882;2022-11-12T03:56:38;7.97;;;4.50;;
75209;SDS011;63796;53.136;14.882;2022-11-12T03:59:05;10.58;;;4.53;;
75209;SDS011;63796;53.136;14.882;2022-11-12T04:01:32;9.40;;;4.55;;
75209;SDS011;63796;53.136;14.882;2022-11-12T04:03:59;10.60;;;5.20;;
75209;SDS011;63796;53.136;14.882;2022-11-12T04:06:26;12.00;;;5.20;;
75209;SDS011;63796;53.136;14.882;2022-11-12T04:09:11;10.38;;;4.55;;
75209;SDS011;63796;53.136;14.882;2022-11-12T04:11:38;9.10;;;5.05;;
75209;SDS011;63796;53.136;14.882;2022-11-12T04:14:05;11.70;;;4.25;;
75209;SDS011;63796;53.136;14.882;2022-11-12T04:16:31;9.47;;;4.63;;
75209;SDS011;63796;53.136;14.882;2022-11-12T04:19:16;14.95;;;5.37;;
75209;SDS011;63796;53.136;14.882;2022-11-12T04:22:06;12.50;;;6.83;;
75209;SDS011;63796;53.136;14.882;2022-11-12T04:24:36;11.60;;;6.53;;
75209;SDS011;63796;53.136;14.882;2022-11-12T04:27:24;12.13;;;6.37;;
75209;SDS011;63796;53.136;14.882;2022-11-12T04:29:56;12.57;;;6.70;;
75209;SDS011;63796;53.136;14.882;2022-11-12T04:32:50;9.53;;;5.20;;
75209;SDS011;63796;53.136;14.882;2022-11-12T04:35:20;13.93;;;6.55;;
75209;SDS011;63796;53.136;14.882;2022-11-12T04:37:48;14.68;;;7.75;;
75209;SDS011;63796;53.136;14.882;2022-11-12T04:40:16;12.45;;;6.65;;
75209;SDS011;63796;53.136;14.882;2022-11-12T04:43:11;14.07;;;7.17;;
75209;SDS011;63796;53.136;14.882;2022-11-12T04:45:59;13.93;;;7.75;;
75209;SDS011;63796;53.136;14.882;2022-11-12T04:48:29;17.45;;;8.08;;
75209;SDS011;63796;53.136;14.882;2022-11-12T04:50:59;12.82;;;6.58;;
75209;SDS011;63796;53.136;14.882;2022-11-12T04:53:29;11.68;;;7.17;;
75209;SDS011;63796;53.136;14.882;2022-11-12T04:55:56;12.97;;;6.77;;
75209;SDS011;63796;53.136;14.882;2022-11-12T04:58:24;11.65;;;6.58;;
75209;SDS011;63796;53.136;14.882;2022-11-12T05:00:51;12.25;;;6.72;;
75209;SDS011;63796;53.136;14.882;2022-11-12T05:03:18;11.25;;;6.67;;
75209;SDS011;63796;53.136;14.882;2022-11-12T05:05:45;12.43;;;6.90;;
75209;SDS011;63796;53.136;14.882;2022-11-12T05:08:12;11.13;;;6.90;;
75209;SDS011;63796;53.136;14.882;2022-11-12T05:10:39;10.13;;;6.17;;
75209;SDS011;63796;53.136;14.882;2022-11-12T05:13:06;13.35;;;7.40;;
75209;SDS011;63796;53.136;14.882;2022-11-12T05:15:32;13.00;;;6.85;;
75209;SDS011;63796;53.136;14.882;2022-11-12T05:17:59;14.18;;;7.12;;
75209;SDS011;63796;53.136;14.882;2022-11-12T05:20:26;14.07;;;6.73;;
75209;SDS011;63796;53.136;14.882;2022-11-12T05:22:53;14.33;;;6.53;;
75209;SDS011;63796;53.136;14.882;2022-11-12T05:25:20;14.33;;;7.20;;
75209;SDS011;63796;53.136;14.882;2022-11-12T05:27:47;14.45;;;6.65;;
75209;SDS011;63796;53.136;14.882;2022-11-12T05:30:13;9.75;;;5.97;;
75209;SDS011;63796;53.136;14.882;2022-11-12T05:32:43;10.67;;;5.70;;
75209;SDS011;63796;53.136;14.882;2022-11-12T05:35:10;9.80;;;6.12;;
75209;SDS011;63796;53.136;14.882;2022-11-12T05:37:37;10.48;;;5.50;;
75209;SDS011;63796;53.136;14.882;2022-11-12T05:40:04;8.73;;;5.20;;
75209;SDS011;63796;53.136;14.882;2022-11-12T05:42:32;12.47;;;5.97;;
75209;SDS011;63796;53.136;14.882;2022-11-12T05:44:59;12.23;;;5.90;;
75209;SDS011;63796;53.136;14.882;2022-11-12T05:47:26;10.13;;;6.25;;
75209;SDS011;63796;53.136;14.882;2022-11-12T05:49:52;10.95;;;6.33;;
75209;SDS011;63796;53.136;14.882;2022-11-12T05:52:19;14.10;;;6.28;;
75209;SDS011;63796;53.136;14.882;2022-11-12T05:54:46;12.58;;;6.67;;
75209;SDS011;63796;53.136;14.882;2022-11-12T05:57:13;12.47;;;6.80;;
75209;SDS011;63796;53.136;14.882;2022-11-12T05:59:40;11.60;;;6.75;;
75209;SDS011;63796;53.136;14.882;2022-11-12T06:02:07;12.15;;;7.10;;
75209;SDS011;63796;53.136;14.882;2022-11-12T06:04:34;13.05;;;7.25;;
75209;SDS011;63796;53.136;14.882;2022-11-12T06:07:01;18.40;;;7.95;;
75209;SDS011;63796;53.136;14.882;2022-11-12T06:09:28;16.27;;;8.00;;
75209;SDS011;63796;53.136;14.882;2022-11-12T06:11:55;13.65;;;7.55;;
75209;SDS011;63796;53.136;14.882;2022-11-12T06:14:22;15.28;;;7.65;;
75209;SDS011;63796;53.136;14.882;2022-11-12T06:16:49;17.75;;;8.38;;
75209;SDS011;63796;53.136;14.882;2022-11-12T06:19:16;16.42;;;8.70;;
75209;SDS011;63796;53.136;14.882;2022-11-12T06:21:43;14.03;;;7.87;;
75209;SDS011;63796;53.136;14.882;2022-11-12T06:24:10;15.60;;;8.23;;
75209;SDS011;63796;53.136;14.882;2022-11-12T06:26:37;15.68;;;7.92;;
75209;SDS011;63796;53.136;14.882;2022-11-12T06:29:04;14.63;;;8.20;;
75209;SDS011;63796;53.136;14.882;2022-11-12T06:31:30;17.67;;;8.58;;
75209;SDS011;63796;53.136;14.882;2022-11-12T06:33:57;14.30;;;8.30;;
75209;SDS011;63796;53.136;14.882;2022-11-12T06:36:24;22.65;;;8.90;;
75209;SDS011;63796;53.136;14.882;2022-11-12T06:38:51;19.35;;;9.38;;
75209;SDS011;63796;53.136;14.882;2022-11-12T06:41:18;19.20;;;9.43;;
75209;SDS011;63796;53.136;14.882;2022-11-12T06:43:45;19.48;;;8.28;;
75209;SDS011;63796;53.136;14.882;2022-11-12T06:46:13;17.77;;;9.17;;
75209;SDS011;63796;53.136;14.882;2022-11-12T06:48:41;17.30;;;8.80;;
75209;SDS011;63796;53.136;14.882;2022-11-12T06:51:10;18.00;;;8.98;;
75209;SDS011;63796;53.136;14.882;2022-11-12T06:53:46;22.90;;;8.80;;
75209;SDS011;63796;53.136;14.882;2022-11-12T06:56:13;14.07;;;7.95;;
75209;SDS011;63796;53.136;14.882;2022-11-12T06:58:41;14.67;;;7.90;;
75209;SDS011;63796;53.136;14.882;2022-11-12T07:01:16;14.73;;;8.28;;
75209;SDS011;63796;53.136;14.882;2022-11-12T07:03:41;17.87;;;8.48;;
75209;SDS011;63796;53.136;14.882;2022-11-12T07:06:10;14.43;;;7.58;;
75209;SDS011;63796;53.136;14.882;2022-11-12T07:08:40;15.95;;;7.85;;
75209;SDS011;63796;53.136;14.882;2022-11-12T07:11:07;14.23;;;7.67;;
75209;SDS011;63796;53.136;14.882;2022-11-12T07:13:35;17.05;;;8.20;;
75209;SDS011;63796;53.136;14.882;2022-11-12T07:16:03;15.25;;;7.85;;
75209;SDS011;63796;53.136;14.882;2022-11-12T07:18:32;15.60;;;7.47;;
75209;SDS011;63796;53.136;14.882;2022-11-12T07:21:00;15.40;;;7.53;;
75209;SDS011;63796;53.136;14.882;2022-11-12T07:23:31;13.37;;;7.67;;
75209;SDS011;63796;53.136;14.882;2022-11-12T07:26:11;16.37;;;7.20;;
75209;SDS011;63796;53.136;14.882;2022-11-12T07:28:42;16.65;;;7.60;;
75209;SDS011;63796;53.136;14.882;2022-11-12T07:31:12;14.83;;;7.70;;
75209;SDS011;63796;53.136;14.882;2022-11-12T07:33:40;14.05;;;6.72;;
75209;SDS011;63796;53.136;14.882;2022-11-12T07:36:12;15.13;;;6.60;;
75209;SDS011;63796;53.136;14.882;2022-11-12T07:38:41;12.68;;;7.25;;
75209;SDS011;63796;53.136;14.882;2022-11-12T07:41:13;12.85;;;6.92;;
75209;SDS011;63796;53.136;14.882;2022-11-12T07:43:43;13.93;;;7.22;;
75209;SDS011;63796;53.136;14.882;2022-11-12T07:46:14;11.97;;;6.78;;
75209;SDS011;63796;53.136;14.882;2022-11-12T07:48:44;14.70;;;6.50;;
75209;SDS011;63796;53.136;14.882;2022-11-12T07:51:12;14.30;;;7.85;;
75209;SDS011;63796;53.136;14.882;2022-11-12T07:53:45;12.90;;;7.15;;
75209;SDS011;63796;53.136;14.882;2022-11-12T07:56:15;15.78;;;7.25;;
75209;SDS011;63796;53.136;14.882;2022-11-12T07:58:44;14.45;;;7.28;;
75209;SDS011;63796;53.136;14.882;2022-11-12T08:03:59;15.03;;;8.05;;
75209;SDS011;63796;53.136;14.882;2022-11-12T08:06:29;15.40;;;7.97;;
75209;SDS011;63796;53.136;14.882;2022-11-12T08:08:57;18.00;;;7.83;;
75209;SDS011;63796;53.136;14.882;2022-11-12T08:11:27;15.68;;;7.70;;
75209;SDS011;63796;53.136;14.882;2022-11-12T08:13:54;15.63;;;7.43;;
75209;SDS011;63796;53.136;14.882;2022-11-12T08:16:21;14.38;;;7.60;;
75209;SDS011;63796;53.136;14.882;2022-11-12T08:18:48;17.57;;;9.23;;
75209;SDS011;63796;53.136;14.882;2022-11-12T08:21:16;89.20;;;56.68;;
75209;SDS011;63796;53.136;14.882;2022-11-12T08:23:44;25.48;;;14.00;;
75209;SDS011;63796;53.136;14.882;2022-11-12T08:26:12;22.90;;;10.90;;
75209;SDS011;63796;53.136;14.882;2022-11-12T08:28:43;30.27;;;13.38;;
75209;SDS011;63796;53.136;14.882;2022-11-12T08:31:11;28.67;;;13.40;;
75209;SDS011;63796;53.136;14.882;2022-11-12T08:33:42;16.87;;;8.50;;
75209;SDS011;63796;53.136;14.882;2022-11-12T08:36:10;15.25;;;7.03;;
75209;SDS011;63796;53.136;14.882;2022-11-12T08:38:40;14.93;;;7.53;;
75209;SDS011;63796;53.136;14.882;2022-11-12T08:41:09;10.85;;;6.58;;
75209;SDS011;63796;53.136;14.882;2022-11-12T08:43:38;10.95;;;5.97;;
75209;SDS011;63796;53.136;14.882;2022-11-12T08:46:07;16.05;;;7.42;;
75209;SDS011;63796;53.136;14.882;2022-11-12T08:48:34;14.30;;;7.12;;
75209;SDS011;63796;53.136;14.882;2022-11-12T08:51:05;12.67;;;6.60;;
75209;SDS011;63796;53.136;14.882;2022-11-12T08:53:32;14.00;;;6.62;;
75209;SDS011;63796;53.136;14.882;2022-11-12T08:55:59;15.70;;;7.17;;
75209;SDS011;63796;53.136;14.882;2022-11-12T08:58:26;15.72;;;6.22;;
75209;SDS011;63796;53.136;14.882;2022-11-12T09:00:53;13.30;;;7.45;;
75209;SDS011;63796;53.136;14.882;2022-11-12T09:03:22;11.83;;;6.53;;
75209;SDS011;63796;53.136;14.882;2022-11-12T09:05:51;12.88;;;6.42;;
75209;SDS011;63796;53.136;14.882;2022-11-12T09:08:19;10.82;;;6.08;;
75209;SDS011;63796;53.136;14.882;2022-11-12T09:10:49;13.95;;;6.17;;
75209;SDS011;63796;53.136;14.882;2022-11-12T09:13:17;14.50;;;7.08;;
75209;SDS011;63796;53.136;14.882;2022-11-12T09:15:45;11.63;;;6.80;;
75209;SDS011;63796;53.136;14.882;2022-11-12T09:18:13;11.83;;;7.12;;
75209;SDS011;63796;53.136;14.882;2022-11-12T09:20:43;15.20;;;6.97;;
75209;SDS011;63796;53.136;14.882;2022-11-12T09:23:14;17.07;;;7.05;;
75209;SDS011;63796;53.136;14.882;2022-11-12T09:25:42;14.60;;;8.08;;
75209;SDS011;63796;53.136;14.882;2022-11-12T09:28:11;13.70;;;6.90;;
75209;SDS011;63796;53.136;14.882;2022-11-12T09:30:41;12.73;;;7.08;;
75209;SDS011;63796;53.136;14.882;2022-11-12T09:33:14;14.43;;;7.10;;
75209;SDS011;63796;53.136;14.882;2022-11-12T09:35:45;10.48;;;6.30;;
75209;SDS011;63796;53.136;14.882;2022-11-12T09:38:13;14.13;;;6.85;;
75209;SDS011;63796;53.136;14.882;2022-11-12T09:43:36;12.20;;;7.12;;
75209;SDS011;63796;53.136;14.882;2022-11-12T09:46:21;22.05;;;12.43;;
75209;SDS011;63796;53.136;14.882;2022-11-12T09:49:01;18.90;;;11.18;;
75209;SDS011;63796;53.136;14.882;2022-11-12T09:51:41;13.28;;;7.20;;
75209;SDS011;63796;53.136;14.882;2022-11-12T09:54:30;14.37;;;6.50;;
75209;SDS011;63796;53.136;14.882;2022-11-12T09:57:00;10.28;;;5.83;;
75209;SDS011;63796;53.136;14.882;2022-11-12T09:59:29;19.00;;;9.70;;
75209;SDS011;63796;53.136;14.882;2022-11-12T10:10:44;10.38;;;6.22;;
75209;SDS011;63796;53.136;14.882;2022-11-12T10:16:21;10.72;;;5.00;;
75209;SDS011;63796;53.136;14.882;2022-11-12T10:22:04;13.07;;;5.53;;
75209;SDS011;63796;53.136;14.882;2022-11-12T10:24:53;10.78;;;5.33;;
75209;SDS011;63796;53.136;14.882;2022-11-12T10:27:23;10.18;;;5.47;;
75209;SDS011;63796;53.136;14.882;2022-11-12T10:30:00;9.85;;;5.35;;
75209;SDS011;63796;53.136;14.882;2022-11-12T10:32:34;11.90;;;6.10;;
75209;SDS011;63796;53.136;14.882;2022-11-12T10:35:02;14.43;;;6.20;;
75209;SDS011;63796;53.136;14.882;2022-11-12T10:37:38;14.33;;;6.95;;
75209;SDS011;63796;53.136;14.882;2022-11-12T10:43:19;10.80;;;5.78;;
75209;SDS011;63796;53.136;14.882;2022-11-12T10:45:45;12.03;;;7.25;;
75209;SDS011;63796;53.136;14.882;2022-11-12T10:48:28;11.47;;;5.23;;
75209;SDS011;63796;53.136;14.882;2022-11-12T10:50:58;14.23;;;5.58;;
75209;SDS011;63796;53.136;14.882;2022-11-12T10:53:30;9.60;;;5.80;;
75209;SDS011;63796;53.136;14.882;2022-11-12T10:56:21;13.32;;;7.35;;
75209;SDS011;63796;53.136;14.882;2022-11-12T10:59:10;23.38;;;14.15;;
75209;SDS011;63796;53.136;14.882;2022-11-12T11:01:43;9.80;;;5.57;;
75209;SDS011;63796;53.136;14.882;2022-11-12T11:07:06;10.50;;;6.05;;
75209;SDS011;63796;53.136;14.882;2022-11-12T11:09:34;11.05;;;5.22;;
75209;SDS011;63796;53.136;14.882;2022-11-12T11:12:00;9.73;;;5.20;;
75209;SDS011;63796;53.136;14.882;2022-11-12T11:14:29;10.00;;;5.47;;
75209;SDS011;63796;53.136;14.882;2022-11-12T11:17:03;14.38;;;7.08;;
75209;SDS011;63796;53.136;14.882;2022-11-12T11:19:36;13.70;;;5.47;;
75209;SDS011;63796;53.136;14.882;2022-11-12T11:22:16;11.75;;;5.20;;
75209;SDS011;63796;53.136;14.882;2022-11-12T11:25:09;11.90;;;4.90;;
75209;SDS011;63796;53.136;14.882;2022-11-12T11:30:21;13.38;;;6.87;;
75209;SDS011;63796;53.136;14.882;2022-11-12T11:35:57;16.77;;;9.50;;
75209;SDS011;63796;53.136;14.882;2022-11-12T14:21:26;19.67;;;10.15;;
75209;SDS011;63796;53.136;14.882;2022-11-12T14:23:54;27.87;;;11.85;;
75209;SDS011;63796;53.136;14.882;2022-11-12T14:26:34;49.97;;;20.30;;
75209;SDS011;63796;53.136;14.882;2022-11-12T14:29:04;44.05;;;17.65;;
75209;SDS011;63796;53.136;14.882;2022-11-12T14:31:31;41.00;;;14.40;;
75209;SDS011;63796;53.136;14.882;2022-11-12T14:36:58;33.50;;;13.98;;
75209;SDS011;63796;53.136;14.882;2022-11-12T14:39:27;27.20;;;11.77;;
75209;SDS011;63796;53.136;14.882;2022-11-12T14:41:56;49.33;;;29.27;;
75209;SDS011;63796;53.136;14.882;2022-11-12T14:44:31;84.00;;;46.73;;
75209;SDS011;63796;53.136;14.882;2022-11-12T14:47:04;100.27;;;50.52;;
75209;SDS011;63796;53.136;14.882;2022-11-12T14:52:13;24.23;;;11.07;;
75209;SDS011;63796;53.136;14.882;2022-11-12T14:54:47;25.10;;;11.00;;
75209;SDS011;63796;53.136;14.882;2022-11-12T14:57:20;28.73;;;10.35;;
75209;SDS011;63796;53.136;14.882;2022-11-12T14:59:46;24.60;;;9.50;;
75209;SDS011;63796;53.136;14.882;2022-11-12T15:02:18;24.60;;;10.05;;
75209;SDS011;63796;53.136;14.882;2022-11-12T15:04:51;47.40;;;16.60;;
75209;SDS011;63796;53.136;14.882;2022-11-12T15:07:31;33.60;;;12.43;;
75209;SDS011;63796;53.136;14.882;2022-11-12T15:10:26;18.60;;;7.33;;
75209;SDS011;63796;53.136;14.882;2022-11-12T15:13:03;18.27;;;6.42;;
75209;SDS011;63796;53.136;14.882;2022-11-12T15:15:51;64.97;;;26.15;;
75209;SDS011;63796;53.136;14.882;2022-11-12T15:18:30;101.70;;;34.20;;
75209;SDS011;63796;53.136;14.882;2022-11-12T15:23:47;32.35;;;12.03;;
75209;SDS011;63796;53.136;14.882;2022-11-12T15:26:24;22.22;;;8.70;;
75209;SDS011;63796;53.136;14.882;2022-11-12T15:29:01;23.00;;;7.40;;
75209;SDS011;63796;53.136;14.882;2022-11-12T15:31:54;26.90;;;9.77;;
75209;SDS011;63796;53.136;14.882;2022-11-12T15:37:10;26.12;;;10.20;;
75209;SDS011;63796;53.136;14.882;2022-11-12T15:39:57;18.95;;;9.73;;
75209;SDS011;63796;53.136;14.882;2022-11-12T15:42:35;59.73;;;25.57;;
75209;SDS011;63796;53.136;14.882;2022-11-12T15:45:17;127.93;;;56.27;;
75209;SDS011;63796;53.136;14.882;2022-11-12T15:47:46;259.23;;;103.70;;
75209;SDS011;63796;53.136;14.882;2022-11-12T15:50:15;122.67;;;48.48;;
75209;SDS011;63796;53.136;14.882;2022-11-12T15:52:44;65.22;;;28.42;;
75209;SDS011;63796;53.136;14.882;2022-11-12T15:55:12;56.35;;;26.00;;
75209;SDS011;63796;53.136;14.882;2022-11-12T15:57:40;28.07;;;13.60;;
75209;SDS011;63796;53.136;14.882;2022-11-12T16:00:15;19.73;;;9.83;;
75209;SDS011;63796;53.136;14.882;2022-11-12T16:02:45;27.40;;;12.63;;
75209;SDS011;63796;53.136;14.882;2022-11-12T16:05:19;15.10;;;5.67;;
75209;SDS011;63796;53.136;14.882;2022-11-12T16:07:46;11.97;;;6.20;;
75209;SDS011;63796;53.136;14.882;2022-11-12T16:10:14;18.97;;;9.37;;
75209;SDS011;63796;53.136;14.882;2022-11-12T16:12:43;45.03;;;17.27;;
75209;SDS011;63796;53.136;14.882;2022-11-12T16:15:13;39.27;;;15.53;;
75209;SDS011;63796;53.136;14.882;2022-11-12T16:17:44;28.47;;;14.23;;
75209;SDS011;63796;53.136;14.882;2022-11-12T16:20:14;26.10;;;13.40;;
75209;SDS011;63796;53.136;14.882;2022-11-12T16:22:46;36.07;;;20.80;;
75209;SDS011;63796;53.136;14.882;2022-11-12T16:25:14;58.95;;;34.00;;
75209;SDS011;63796;53.136;14.882;2022-11-12T16:27:42;36.48;;;18.35;;
75209;SDS011;63796;53.136;14.882;2022-11-12T16:30:17;57.30;;;25.68;;
75209;SDS011;63796;53.136;14.882;2022-11-12T16:32:47;60.05;;;27.93;;
75209;SDS011;63796;53.136;14.882;2022-11-12T16:35:14;52.53;;;20.20;;
75209;SDS011;63796;53.136;14.882;2022-11-12T16:37:46;70.75;;;26.52;;
75209;SDS011;63796;53.136;14.882;2022-11-12T16:40:12;116.22;;;36.85;;
75209;SDS011;63796;53.136;14.882;2022-11-12T16:42:42;80.95;;;26.65;;
75209;SDS011;63796;53.136;14.882;2022-11-12T16:45:13;141.07;;;42.48;;
75209;SDS011;63796;53.136;14.882;2022-11-12T16:47:51;165.70;;;47.97;;
75209;SDS011;63796;53.136;14.882;2022-11-12T16:50:21;81.67;;;27.40;;
75209;SDS011;63796;53.136;14.882;2022-11-12T16:52:53;41.37;;;17.95;;
75209;SDS011;63796;53.136;14.882;2022-11-12T16:55:20;29.37;;;12.98;;
75209;SDS011;63796;53.136;14.882;2022-11-12T16:57:47;22.25;;;12.00;;
75209;SDS011;63796;53.136;14.882;2022-11-12T17:00:19;28.63;;;14.30;;
75209;SDS011;63796;53.136;14.882;2022-11-12T17:02:44;30.23;;;13.48;;
75209;SDS011;63796;53.136;14.882;2022-11-12T17:05:13;23.67;;;12.20;;
75209;SDS011;63796;53.136;14.882;2022-11-12T17:07:44;77.32;;;28.95;;
75209;SDS011;63796;53.136;14.882;2022-11-12T17:10:11;55.15;;;24.90;;
75209;SDS011;63796;53.136;14.882;2022-11-12T17:12:38;73.63;;;29.60;;
75209;SDS011;63796;53.136;14.882;2022-11-12T17:15:05;62.98;;;24.47;;
75209;SDS011;63796;53.136;14.882;2022-11-12T17:17:33;87.47;;;32.48;;
75209;SDS011;63796;53.136;14.882;2022-11-12T17:20:01;87.10;;;32.30;;
75209;SDS011;63796;53.136;14.882;2022-11-12T17:22:29;77.65;;;27.98;;
75209;SDS011;63796;53.136;14.882;2022-11-12T17:24:56;111.20;;;37.07;;
75209;SDS011;63796;53.136;14.882;2022-11-12T17:27:23;78.25;;;28.25;;
75209;SDS011;63796;53.136;14.882;2022-11-12T17:29:50;54.15;;;22.22;;
75209;SDS011;63796;53.136;14.882;2022-11-12T17:32:17;41.98;;;20.48;;
75209;SDS011;63796;53.136;14.882;2022-11-12T17:34:44;71.67;;;30.57;;
75209;SDS011;63796;53.136;14.882;2022-11-12T17:37:10;107.73;;;39.40;;
75209;SDS011;63796;53.136;14.882;2022-11-12T17:39:38;63.00;;;24.70;;
75209;SDS011;63796;53.136;14.882;2022-11-12T17:42:04;43.63;;;18.25;;
75209;SDS011;63796;53.136;14.882;2022-11-12T17:44:31;49.40;;;19.45;;
75209;SDS011;63796;53.136;14.882;2022-11-12T17:46:58;45.03;;;19.67;;
75209;SDS011;63796;53.136;14.882;2022-11-12T17:49:26;67.60;;;29.03;;
75209;SDS011;63796;53.136;14.882;2022-11-12T17:51:53;84.10;;;37.58;;
75209;SDS011;63796;53.136;14.882;2022-11-12T17:54:20;66.95;;;31.17;;
75209;SDS011;63796;53.136;14.882;2022-11-12T17:56:47;82.35;;;36.40;;
75209;SDS011;63796;53.136;14.882;2022-11-12T17:59:14;179.68;;;92.92;;
75209;SDS011;63796;53.136;14.882;2022-11-12T18:01:41;126.07;;;61.03;;
75209;SDS011;63796;53.136;14.882;2022-11-12T18:04:08;118.80;;;58.35;;
75209;SDS011;63796;53.136;14.882;2022-11-12T18:06:36;119.22;;;54.67;;
75209;SDS011;63796;53.136;14.882;2022-11-12T18:09:10;103.97;;;49.03;;
75209;SDS011;63796;53.136;14.882;2022-11-12T18:11:42;93.22;;;46.05;;